Huvudsida
METAR-TAF:

METAR-TAF

Flygplatser :

Berns flygplats

Bern, Schweiz

latitud: 46-55N, longitud: 007-30E, höjd: 505 m

Aktuellt väderrapport

Denna rapport gjordes för 28 minuter sedan, klockan 01:20 UTC
Vind 1 kt varierande vindriktning
Temperatur 12°C
Fuktighet 100%
Tryck 1017 hPa
Sikt: 9000 m
dimma

METAR: LSZB 180120Z AUTO VRB01KT 9000 FG NCD 12/12 Q1017

Tid: 03:48 (01:48 UTC)

Väderprognos

Denna rapport gjordes för 11 timmar och 23 minuter sedan, klockan 14:25 UTC
Prognos gäller från 17 kl. 15 UTC till 17 kl. 24 UTC
Vind 3 kt varierande vindriktning
Sikt 10 km eller mer
Inga moln under 1 500 m eller inga cumulonimbus

TAF: LSZB 171425Z 1715/1724 VRB03KT CAVOK

Aktuella väderrapporter och prognoser från 4000 flygplatser (METAR- och TAF-rapporter).

De tillgängliga stationerna syns som gula och röda prickar på kartan.

För musen över prickarna för att se namnen på stationerna.

Klicka sedan för att få väderrapporter och prognoser.

För att ändra kartan: Klicka på de gröna knapparna med ett svart kors på för att zooma in; den gröna knappen med ett streck på för att zooma ut; eller på de gröna pilarna för angränsande kartor.


METAR-TAF: